createdAt,value
2022-12-01T00:02:08.183Z,0.78
2022-12-01T00:04:38.449Z,0.72
2022-12-01T00:07:11.212Z,0.75
2022-12-01T00:09:53.565Z,0.74
2022-12-01T00:12:23.884Z,0.72
2022-12-01T00:14:55.145Z,0.70
2022-12-01T00:17:27.106Z,0.71
2022-12-01T00:19:57.241Z,0.73
2022-12-01T00:22:32.948Z,0.67
2022-12-01T00:25:02.934Z,0.73
2022-12-01T00:27:32.919Z,0.79
2022-12-01T00:30:03.150Z,0.72
2022-12-01T00:32:33.510Z,0.68
2022-12-01T00:35:03.699Z,0.68
2022-12-01T00:37:37.599Z,0.70
2022-12-01T00:40:08.298Z,0.64
2022-12-01T00:42:39.026Z,0.68
2022-12-01T00:45:10.297Z,0.58
2022-12-01T00:47:40.362Z,0.56
2022-12-01T00:50:13.402Z,0.48
2022-12-01T00:52:46.208Z,0.44
2022-12-01T00:55:16.268Z,0.41
2022-12-01T00:57:46.540Z,0.36
2022-12-01T01:00:18.380Z,0.32
2022-12-01T01:02:50.149Z,0.28
2022-12-01T01:05:20.335Z,0.22
2022-12-01T01:07:52.987Z,0.21
2022-12-01T01:10:23.356Z,0.19
2022-12-01T01:12:55.451Z,0.17
2022-12-01T01:15:26.581Z,0.12
2022-12-01T01:17:57.178Z,0.18
2022-12-01T01:20:27.357Z,0.13
2022-12-01T01:23:00.697Z,0.06
2022-12-01T01:25:31.004Z,0.12
2022-12-01T01:28:01.025Z,0.09
2022-12-01T01:30:32.967Z,0.14
2022-12-01T01:33:03.567Z,0.04
2022-12-01T01:35:33.658Z,0.06
2022-12-01T01:38:06.467Z,0.06
2022-12-01T01:40:36.524Z,0.10
2022-12-01T01:43:15.999Z,0.07
2022-12-01T01:45:47.225Z,0.03
2022-12-01T01:48:17.423Z,0.01
2022-12-01T01:50:47.488Z,-0.04
2022-12-01T01:53:20.355Z,-0.03
2022-12-01T01:55:50.452Z,-0.10
2022-12-01T01:58:21.022Z,-0.06
2022-12-01T02:00:54.275Z,-0.06
2022-12-01T02:03:25.561Z,-0.05
2022-12-01T02:05:57.489Z,-0.06
2022-12-01T02:08:34.849Z,-0.06
2022-12-01T02:11:51.367Z,-0.07
2022-12-01T02:14:41.994Z,-0.07
2022-12-01T02:17:25.606Z,-0.06
2022-12-01T02:20:24.989Z,-0.06
2022-12-01T02:23:14.053Z,0.03
2022-12-01T02:25:53.628Z,-0.03
2022-12-01T02:28:50.132Z,-0.04
2022-12-01T02:31:28.552Z,-0.06
2022-12-01T02:34:02.417Z,-0.08
2022-12-01T02:36:35.729Z,-0.12
2022-12-01T02:39:10.788Z,-0.13
2022-12-01T02:41:45.945Z,-0.15
2022-12-01T02:44:23.339Z,-0.21
2022-12-01T02:47:03.098Z,-0.15
2022-12-01T02:49:37.965Z,-0.14
2022-12-01T02:52:09.690Z,-0.14
2022-12-01T02:54:40.667Z,-0.08
2022-12-01T02:57:14.592Z,-0.06
2022-12-01T02:59:47.403Z,-0.06
2022-12-01T03:02:30.897Z,-0.06
2022-12-01T03:05:06.694Z,-0.04
2022-12-01T03:07:52.676Z,-0.04
2022-12-01T03:10:29.126Z,-0.03
2022-12-01T03:13:11.259Z,0.03
2022-12-01T03:15:52.010Z,0.02
2022-12-01T03:18:32.225Z,0.01
2022-12-01T03:21:07.629Z,0.04
2022-12-01T03:23:41.581Z,0.04
2022-12-01T03:26:16.557Z,-0.03
2022-12-01T03:28:50.348Z,0.08
2022-12-01T03:31:22.111Z,0.05
2022-12-01T03:34:01.779Z,0.21
2022-12-01T03:36:35.894Z,0.09
2022-12-01T03:39:10.393Z,0.07
2022-12-01T03:41:45.393Z,0.03
2022-12-01T03:44:20.085Z,-0.02
2022-12-01T03:46:54.871Z,-0.03
2022-12-01T03:49:28.965Z,-0.04
2022-12-01T03:52:09.210Z,0.02
2022-12-01T03:54:50.426Z,0.03
2022-12-01T03:57:27.098Z,0.05
2022-12-01T03:59:57.890Z,0.07
2022-12-01T04:02:30.457Z,0.06
2022-12-01T04:05:03.131Z,-0.02
2022-12-01T04:07:33.526Z,0.09
2022-12-01T04:10:03.985Z,0.08
2022-12-01T04:12:33.105Z,0.10
2022-12-01T04:15:05.768Z,0.05
2022-12-01T04:17:35.828Z,-0.03
2022-12-01T04:20:10.838Z,-0.12
2022-12-01T04:22:40.851Z,-0.13
2022-12-01T04:25:12.633Z,-0.05
2022-12-01T04:27:43.289Z,-0.09
2022-12-01T04:30:14.457Z,-0.22
2022-12-01T04:32:46.451Z,-0.25
2022-12-01T04:35:19.256Z,-0.32
2022-12-01T04:37:49.489Z,-0.34
2022-12-01T04:40:21.660Z,-0.21
2022-12-01T04:42:51.905Z,-0.24
2022-12-01T04:45:22.868Z,-0.33
2022-12-01T04:47:55.917Z,-0.38
2022-12-01T04:50:28.610Z,-0.47
2022-12-01T04:52:58.653Z,-0.45
2022-12-01T04:55:28.695Z,-0.58
2022-12-01T04:58:01.408Z,-0.62
2022-12-01T05:00:33.153Z,-0.73
2022-12-01T05:03:04.332Z,-0.67
2022-12-01T05:05:37.162Z,-0.69
2022-12-01T05:08:07.818Z,-0.71
2022-12-01T05:10:38.570Z,-0.76
2022-12-01T05:13:09.075Z,-0.73
2022-12-01T05:15:41.876Z,-0.79
2022-12-01T05:18:11.990Z,-0.85
2022-12-01T05:20:57.013Z,-0.88
2022-12-01T05:23:27.605Z,-0.90
2022-12-01T05:25:58.127Z,-0.83
2022-12-01T05:28:29.450Z,-0.88
2022-12-01T05:31:00.892Z,-0.89
2022-12-01T05:33:32.606Z,-0.84
2022-12-01T05:36:05.584Z,-0.91
2022-12-01T05:38:35.872Z,-0.92
2022-12-01T05:41:05.923Z,-0.92
2022-12-01T05:43:36.046Z,-0.93
2022-12-01T05:46:07.091Z,-0.97
2022-12-01T05:48:37.149Z,-1.00
2022-12-01T05:51:17.659Z,-1.00
2022-12-01T05:53:48.378Z,-1.00
2022-12-01T05:56:18.462Z,-1.04
2022-12-01T05:58:48.493Z,-1.10
2022-12-01T06:01:18.689Z,-1.12
2022-12-01T06:03:48.901Z,-1.08
2022-12-01T06:06:21.781Z,-1.16
2022-12-01T06:08:52.166Z,-1.08
2022-12-01T06:11:22.367Z,-1.13
2022-12-01T06:13:52.375Z,-1.17
2022-12-01T06:16:22.475Z,-1.30
2022-12-01T06:18:52.486Z,-1.30
2022-12-01T06:21:25.339Z,-1.28
2022-12-01T06:23:55.330Z,-1.29
2022-12-01T06:26:25.357Z,-1.29
2022-12-01T06:28:55.391Z,-1.31
2022-12-01T06:31:25.510Z,-1.38
2022-12-01T06:33:55.811Z,-1.35
2022-12-01T06:36:28.830Z,-1.36
2022-12-01T06:38:58.925Z,-1.31
2022-12-01T06:41:28.946Z,-1.35
2022-12-01T06:43:59.007Z,-1.40
2022-12-01T06:46:29.628Z,-1.41
2022-12-01T06:49:00.004Z,-1.35
2022-12-01T06:51:34.441Z,-1.34
2022-12-01T06:54:05.804Z,-1.32
2022-12-01T06:56:36.106Z,-1.30
2022-12-01T06:59:06.405Z,-1.30
2022-12-01T07:01:36.934Z,-1.24
2022-12-01T07:04:07.216Z,-1.16
2022-12-01T07:06:39.878Z,-1.12
2022-12-01T07:09:09.900Z,-1.02
2022-12-01T07:11:39.946Z,-1.02
2022-12-01T07:14:10.337Z,-0.95
2022-12-01T07:16:41.140Z,-0.90
2022-12-01T07:19:11.374Z,-0.81
2022-12-01T07:21:44.234Z,-0.79
2022-12-01T07:24:15.733Z,-0.76
2022-12-01T07:26:46.601Z,-0.74
2022-12-01T07:29:16.714Z,-0.74
2022-12-01T07:31:48.100Z,-0.65
2022-12-01T07:34:18.421Z,-0.58
2022-12-01T07:36:51.568Z,-0.53
2022-12-01T07:39:21.701Z,-0.45
2022-12-01T07:41:51.704Z,-0.43
2022-12-01T07:44:21.907Z,-0.32
2022-12-01T07:46:52.089Z,-0.23
2022-12-01T07:49:22.355Z,-0.09
2022-12-01T07:51:55.033Z,-0.04
2022-12-01T07:54:26.117Z,0.09
2022-12-01T07:56:56.127Z,0.14
2022-12-01T07:59:26.162Z,0.21
2022-12-01T08:01:56.283Z,0.27
2022-12-01T08:04:26.802Z,0.41
2022-12-01T08:06:59.751Z,0.50
2022-12-01T08:09:30.594Z,0.40
2022-12-01T08:12:01.920Z,0.43
2022-12-01T08:14:31.930Z,0.43
2022-12-01T08:17:29.290Z,0.53
2022-12-01T08:19:59.314Z,0.51
2022-12-01T08:22:32.278Z,0.53
2022-12-01T08:25:02.521Z,0.61
2022-12-01T08:27:32.702Z,0.56
2022-12-01T08:30:02.864Z,0.48
2022-12-01T08:32:33.852Z,0.51
2022-12-01T08:35:04.016Z,0.47
2022-12-01T08:37:36.804Z,0.51
2022-12-01T08:40:08.048Z,0.55
2022-12-01T08:42:38.348Z,0.49
2022-12-01T08:45:13.093Z,0.57
2022-12-01T08:47:44.592Z,0.72
2022-12-01T08:50:15.686Z,0.91
2022-12-01T08:52:48.586Z,1.09
2022-12-01T08:55:18.740Z,1.15
2022-12-01T08:57:49.158Z,1.32
2022-12-01T09:00:22.637Z,1.48
2022-12-01T09:03:02.153Z,1.55
2022-12-01T09:05:32.205Z,1.65
2022-12-01T09:08:19.710Z,1.71
2022-12-01T09:10:54.263Z,1.81
2022-12-01T09:13:24.452Z,1.85
2022-12-01T09:16:00.668Z,1.95
2022-12-01T09:18:31.628Z,1.98
2022-12-01T09:21:02.109Z,2.17
2022-12-01T09:23:34.820Z,2.04
2022-12-01T09:26:07.789Z,2.27
2022-12-01T09:28:39.842Z,2.25
2022-12-01T09:31:13.215Z,2.37
2022-12-01T09:33:43.708Z,2.25
2022-12-01T09:36:14.518Z,2.25
2022-12-01T09:38:47.404Z,2.44
2022-12-01T09:41:23.452Z,2.58
2022-12-01T09:43:59.471Z,2.62
2022-12-01T09:46:35.735Z,2.61
2022-12-01T09:49:07.364Z,2.74
2022-12-01T09:51:38.525Z,2.73
2022-12-01T09:54:15.934Z,2.46
2022-12-01T09:56:50.486Z,2.08
2022-12-01T09:59:25.360Z,2.15
2022-12-01T10:02:01.105Z,2.35
2022-12-01T10:04:36.242Z,2.34
2022-12-01T10:07:09.284Z,2.47
2022-12-01T10:09:45.864Z,2.55
2022-12-01T10:12:18.739Z,2.61
2022-12-01T10:14:50.487Z,2.76
2022-12-01T10:17:28.591Z,2.77
2022-12-01T10:20:04.705Z,2.55
2022-12-01T10:22:53.031Z,2.42
2022-12-01T10:25:28.271Z,2.36
2022-12-01T10:28:15.788Z,2.55
2022-12-01T10:30:53.691Z,2.51
2022-12-01T10:33:27.362Z,2.35
2022-12-01T10:35:57.613Z,2.54
2022-12-01T10:38:31.272Z,2.51
2022-12-01T10:41:09.466Z,2.40
2022-12-01T10:43:44.320Z,2.54
2022-12-01T10:46:24.551Z,2.66
2022-12-01T10:48:59.780Z,2.66
2022-12-01T10:51:31.226Z,2.64
2022-12-01T10:54:02.956Z,2.70
2022-12-01T10:56:36.851Z,2.99
2022-12-01T10:59:08.036Z,3.15
2022-12-01T11:01:38.532Z,3.20
2022-12-01T11:04:11.479Z,3.39
2022-12-01T11:06:42.572Z,3.47
2022-12-01T11:09:26.388Z,3.55
2022-12-01T11:12:03.571Z,3.56
2022-12-01T11:14:44.022Z,3.75
2022-12-01T11:17:30.056Z,3.78
2022-12-01T11:20:00.564Z,3.87
2022-12-01T11:22:33.444Z,3.94
2022-12-01T11:25:05.868Z,3.85
2022-12-01T11:27:48.581Z,3.74
2022-12-01T11:30:25.999Z,4.00
2022-12-01T11:32:58.542Z,3.95
2022-12-01T11:35:31.752Z,4.13
2022-12-01T11:40:57.865Z,4.24
2022-12-01T11:43:32.721Z,4.34
2022-12-01T11:46:06.895Z,4.28
2022-12-01T11:48:38.471Z,4.33
2022-12-01T11:51:13.874Z,4.33
2022-12-01T11:53:45.177Z,4.26
2022-12-01T11:56:25.140Z,4.39
2022-12-01T11:59:03.332Z,4.53
2022-12-01T12:01:42.635Z,4.44
2022-12-01T12:04:30.865Z,4.34
2022-12-01T12:07:11.052Z,4.35
2022-12-01T12:09:59.901Z,4.48
2022-12-01T12:12:45.474Z,4.38
2022-12-01T12:15:36.993Z,4.46
2022-12-01T12:18:30.908Z,4.52
2022-12-01T12:21:11.548Z,4.73
2022-12-01T12:24:06.879Z,4.79
2022-12-01T12:26:44.234Z,4.79
2022-12-01T12:29:34.388Z,4.78
2022-12-01T12:32:22.787Z,4.81
2022-12-01T12:35:01.205Z,4.84
2022-12-01T12:37:42.985Z,4.90
2022-12-01T12:40:29.503Z,4.87
2022-12-01T12:43:13.263Z,4.80
2022-12-01T12:45:53.449Z,4.87
2022-12-01T12:48:38.697Z,4.81
2022-12-01T12:51:25.524Z,4.78
2022-12-01T12:54:03.190Z,4.84
2022-12-01T12:56:35.612Z,4.71
2022-12-01T12:59:12.110Z,4.66
2022-12-01T13:01:47.578Z,4.67
2022-12-01T13:04:25.687Z,4.74
2022-12-01T13:07:04.316Z,4.72
2022-12-01T13:09:39.356Z,4.84
2022-12-01T13:12:16.057Z,4.75
2022-12-01T13:14:50.887Z,4.67
2022-12-01T13:17:25.499Z,4.68
2022-12-01T13:19:59.097Z,4.58
2022-12-01T13:22:35.331Z,4.56
2022-12-01T13:25:07.834Z,4.63
2022-12-01T13:27:40.064Z,4.59
2022-12-01T13:30:21.593Z,4.51
2022-12-01T13:33:03.623Z,4.50
2022-12-01T13:35:39.621Z,4.44
2022-12-01T13:38:25.040Z,4.42
2022-12-01T13:41:13.562Z,4.55
2022-12-01T13:43:56.538Z,4.55
2022-12-01T13:46:29.401Z,4.49
2022-12-01T13:49:01.230Z,4.46
2022-12-01T13:52:09.782Z,4.47
2022-12-01T13:54:41.021Z,4.44
2022-12-01T13:57:17.040Z,4.36
2022-12-01T14:00:08.575Z,4.35
2022-12-01T14:02:45.000Z,4.34
2022-12-01T14:05:44.931Z,4.33
2022-12-01T14:08:24.719Z,4.32
2022-12-01T14:10:57.749Z,4.21
2022-12-01T14:13:28.608Z,4.27
2022-12-01T14:16:01.799Z,4.15
2022-12-01T14:18:41.114Z,4.14
2022-12-01T14:21:14.802Z,4.06
2022-12-01T14:24:04.525Z,3.97
2022-12-01T14:26:35.286Z,3.97
2022-12-01T14:29:33.130Z,3.82
2022-12-01T14:32:24.864Z,3.72
2022-12-01T14:35:13.948Z,3.60
2022-12-01T14:37:53.134Z,3.50
2022-12-01T14:40:33.569Z,3.40
2022-12-01T14:43:18.716Z,3.32
2022-12-01T14:45:58.421Z,3.23
2022-12-01T14:48:35.893Z,3.11
2022-12-01T14:51:22.480Z,3.09
2022-12-01T14:53:55.400Z,3.10
2022-12-01T14:56:30.139Z,3.10
2022-12-01T14:59:02.866Z,3.09
2022-12-01T15:01:37.189Z,3.05
2022-12-01T15:04:09.183Z,2.94
2022-12-01T15:06:40.709Z,2.89
2022-12-01T15:09:34.178Z,2.87
2022-12-01T15:12:09.644Z,2.73
2022-12-01T15:14:43.098Z,2.64
2022-12-01T15:17:32.187Z,2.65
2022-12-01T15:20:02.745Z,2.55
2022-12-01T15:22:34.747Z,2.45
2022-12-01T15:25:10.364Z,2.27
2022-12-01T15:27:43.279Z,2.27
2022-12-01T15:30:18.947Z,2.24
2022-12-01T15:32:49.640Z,2.20
2022-12-01T15:35:22.759Z,2.14
2022-12-01T15:37:54.347Z,2.07
2022-12-01T15:41:06.243Z,1.99
2022-12-01T15:43:25.210Z,1.92
2022-12-01T15:45:59.930Z,1.86
2022-12-01T15:48:33.083Z,1.81
2022-12-01T15:51:08.572Z,1.75
2022-12-01T15:53:42.820Z,1.70
2022-12-01T15:56:14.029Z,1.66
2022-12-01T15:58:49.696Z,1.57
2022-12-01T16:01:21.488Z,1.52
2022-12-01T16:03:56.625Z,1.45
2022-12-01T16:06:30.839Z,1.40
2022-12-01T16:09:04.214Z,1.37
2022-12-01T16:11:35.194Z,1.32
2022-12-01T16:14:24.883Z,1.27
2022-12-01T16:16:55.874Z,1.25
2022-12-01T16:19:30.271Z,1.19
2022-12-01T16:22:07.591Z,1.16
2022-12-01T16:24:42.440Z,1.11
2022-12-01T16:27:23.100Z,1.06
2022-12-01T16:29:57.612Z,0.94
2022-12-01T16:32:35.911Z,0.85
2022-12-01T16:35:06.590Z,0.75
2022-12-01T16:37:36.822Z,0.81
2022-12-01T16:40:09.575Z,0.78
2022-12-01T16:42:39.590Z,0.78
2022-12-01T16:45:15.296Z,0.77
2022-12-01T16:47:46.432Z,0.77
2022-12-01T16:50:17.211Z,0.77
2022-12-01T16:52:47.647Z,0.73
2022-12-01T16:55:34.590Z,0.78
2022-12-01T16:58:04.836Z,0.77
2022-12-01T17:00:41.469Z,0.78
2022-12-01T17:03:14.676Z,0.79
2022-12-01T17:05:48.134Z,0.76
2022-12-01T17:08:18.686Z,0.70
2022-12-01T17:10:52.948Z,0.67
2022-12-01T17:13:24.853Z,0.63
2022-12-01T17:16:08.121Z,0.63
2022-12-01T17:18:39.411Z,0.62
2022-12-01T17:21:11.751Z,0.60
2022-12-01T17:23:42.303Z,0.56
2022-12-01T17:26:14.991Z,0.52
2022-12-01T17:28:45.241Z,0.46
2022-12-01T17:31:18.493Z,0.44
2022-12-01T17:33:48.641Z,0.43
2022-12-01T17:36:19.306Z,0.41
2022-12-01T17:38:51.229Z,0.40
2022-12-01T17:41:25.533Z,0.38
2022-12-01T17:43:55.711Z,0.36
2022-12-01T17:46:30.289Z,0.35
2022-12-01T17:49:00.619Z,0.32
2022-12-01T17:51:30.980Z,0.31
2022-12-01T17:54:01.002Z,0.31
2022-12-01T17:56:31.188Z,0.32
2022-12-01T17:59:01.476Z,0.32
2022-12-01T18:01:35.372Z,0.31
2022-12-01T18:04:05.461Z,0.31
2022-12-01T18:06:35.966Z,0.30
2022-12-01T18:09:06.619Z,0.30
2022-12-01T18:11:38.409Z,0.29
2022-12-01T18:14:08.650Z,0.30
2022-12-01T18:16:42.494Z,0.29
2022-12-01T18:19:12.974Z,0.29
2022-12-01T18:21:44.092Z,0.28
2022-12-01T18:24:14.874Z,0.29
2022-12-01T18:26:45.917Z,0.29
2022-12-01T18:29:18.789Z,0.29
2022-12-01T18:31:51.671Z,0.31
2022-12-01T18:34:23.037Z,0.30
2022-12-01T18:36:53.409Z,0.33
2022-12-01T18:39:23.637Z,0.31
2022-12-01T18:41:53.822Z,0.32
2022-12-01T18:44:24.128Z,0.30
2022-12-01T18:46:57.942Z,0.32
2022-12-01T18:49:27.780Z,0.30
2022-12-01T18:52:00.021Z,0.29
2022-12-01T18:54:30.374Z,0.29
2022-12-01T18:57:00.528Z,0.29
2022-12-01T18:59:30.732Z,0.30
2022-12-01T19:02:03.720Z,0.28
2022-12-01T19:04:33.972Z,0.28
2022-12-01T19:07:04.585Z,0.26
2022-12-01T19:09:34.664Z,0.25
2022-12-01T19:12:04.823Z,0.24
2022-12-01T19:14:34.952Z,0.22
2022-12-01T19:17:07.744Z,0.24
2022-12-01T19:19:37.901Z,0.22
2022-12-01T19:22:08.125Z,0.21
2022-12-01T19:24:38.362Z,0.21
2022-12-01T19:27:08.438Z,0.17
2022-12-01T19:29:38.640Z,0.16
2022-12-01T19:32:12.014Z,0.14
2022-12-01T19:34:42.099Z,0.12
2022-12-01T19:37:15.118Z,0.08
2022-12-01T19:39:46.795Z,0.06
2022-12-01T19:42:18.495Z,0.04
2022-12-01T19:44:48.934Z,0.03
2022-12-01T19:47:22.645Z,-0.03
2022-12-01T19:49:52.762Z,-0.06
2022-12-01T19:52:23.016Z,-0.09
2022-12-01T19:54:53.656Z,-0.13
2022-12-01T19:57:27.187Z,-0.15
2022-12-01T19:59:57.591Z,-0.19
2022-12-01T20:02:32.938Z,-0.23
2022-12-01T20:05:03.912Z,-0.27
2022-12-01T20:07:34.561Z,-0.33
2022-12-01T20:10:05.968Z,-0.35
2022-12-01T20:12:38.342Z,-0.46
2022-12-01T20:15:10.338Z,-0.48
2022-12-01T20:17:43.197Z,-0.47
2022-12-01T20:20:16.019Z,-0.50
2022-12-01T20:22:46.195Z,-0.57
2022-12-01T20:25:16.876Z,-0.60
2022-12-01T20:27:48.249Z,-0.61
2022-12-01T20:30:18.848Z,-0.62
2022-12-01T20:32:52.286Z,-0.63
2022-12-01T20:35:22.715Z,-0.68
2022-12-01T20:37:54.045Z,-0.68
2022-12-01T20:40:25.241Z,-0.67
2022-12-01T20:42:55.284Z,-0.69
2022-12-01T20:45:26.165Z,-0.68
2022-12-01T20:47:59.103Z,-0.67
2022-12-01T20:50:29.508Z,-0.68
2022-12-01T20:52:59.760Z,-0.67
2022-12-01T20:55:31.155Z,-0.67
2022-12-01T20:58:03.129Z,-0.69
2022-12-01T21:00:33.875Z,-0.70
2022-12-01T21:03:06.922Z,-0.70
2022-12-01T21:05:37.266Z,-0.69
2022-12-01T21:08:09.668Z,-0.68
2022-12-01T21:10:40.624Z,-0.67
2022-12-01T21:13:33.255Z,-0.55
2022-12-01T21:16:10.860Z,-0.47
2022-12-01T21:18:53.466Z,-0.37
2022-12-01T21:21:27.709Z,-0.40
2022-12-01T21:24:11.593Z,-0.45
2022-12-01T21:26:44.004Z,-0.39
2022-12-01T21:29:21.097Z,-0.45
2022-12-01T21:31:54.796Z,-0.52
2022-12-01T21:34:28.941Z,-0.55
2022-12-01T21:37:06.348Z,-0.58
2022-12-01T21:39:38.085Z,-0.61
2022-12-01T21:42:19.075Z,-0.62
2022-12-01T21:44:49.859Z,-0.63
2022-12-01T21:47:24.172Z,-0.64
2022-12-01T21:49:59.133Z,-0.67
2022-12-01T21:52:33.387Z,-0.67
2022-12-01T21:55:06.552Z,-0.69
2022-12-01T21:57:48.088Z,-0.69
2022-12-01T22:00:31.593Z,-0.72
2022-12-01T22:03:20.616Z,-0.73
2022-12-01T22:06:21.447Z,-0.76
2022-12-01T22:08:48.693Z,-0.77
2022-12-01T22:11:22.080Z,-0.80
2022-12-01T22:13:58.106Z,-0.83
2022-12-01T22:16:33.905Z,-0.74
2022-12-01T22:19:11.453Z,-0.80
2022-12-01T22:21:48.254Z,-0.76
2022-12-01T22:24:25.077Z,-0.58
2022-12-01T22:27:06.023Z,-0.65
2022-12-01T22:29:42.319Z,-0.69
2022-12-01T22:32:37.517Z,-0.67
2022-12-01T22:35:27.283Z,-0.73
2022-12-01T22:38:04.207Z,-0.76
2022-12-01T22:40:42.797Z,-0.71
2022-12-01T22:43:31.491Z,-0.65
2022-12-01T22:46:25.321Z,-0.61
2022-12-01T22:48:57.417Z,-0.61
2022-12-01T22:51:33.946Z,-0.60
2022-12-01T22:54:32.613Z,-0.51
2022-12-01T22:57:08.317Z,-0.52
2022-12-01T22:59:41.116Z,-0.43
2022-12-01T23:02:21.103Z,-0.44
2022-12-01T23:04:53.146Z,-0.34
2022-12-01T23:07:31.839Z,-0.40
2022-12-01T23:10:08.105Z,-0.34
2022-12-01T23:12:39.540Z,-0.35
2022-12-01T23:15:29.713Z,-0.36
2022-12-01T23:18:02.016Z,-0.36
2022-12-01T23:20:38.073Z,-0.34
2022-12-01T23:23:13.921Z,-0.36
2022-12-01T23:25:48.412Z,-0.33
2022-12-01T23:28:18.524Z,-0.31
2022-12-01T23:30:52.710Z,-0.34
2022-12-01T23:33:25.643Z,-0.27
2022-12-01T23:36:00.566Z,-0.32
2022-12-01T23:38:37.581Z,-0.41
2022-12-01T23:41:15.775Z,-0.43
2022-12-01T23:43:48.141Z,-0.42
2022-12-01T23:46:21.461Z,-0.45
2022-12-01T23:48:55.453Z,-0.32
2022-12-01T23:51:28.707Z,-0.37
2022-12-01T23:54:02.449Z,-0.38
2022-12-01T23:56:36.271Z,-0.46
2022-12-01T23:59:06.059Z,-0.51
